createdAt,value
2019-02-14T00:00:28.758Z,36.10
2019-02-14T00:03:01.877Z,32.33
2019-02-14T00:05:33.531Z,40.57
2019-02-14T00:08:05.091Z,37.37
2019-02-14T00:10:36.926Z,35.40
2019-02-14T00:13:08.435Z,32.00
2019-02-14T00:15:39.999Z,38.67
2019-02-14T00:18:11.520Z,37.97
2019-02-14T00:20:43.024Z,39.67
2019-02-14T00:23:32.654Z,36.20
2019-02-14T00:26:04.292Z,40.43
2019-02-14T00:28:43.589Z,35.77
2019-02-14T00:31:15.178Z,33.27
2019-02-14T00:33:46.753Z,43.03
2019-02-14T00:36:18.244Z,35.27
2019-02-14T00:38:49.710Z,36.00
2019-02-14T00:41:22.225Z,36.23
2019-02-14T00:43:53.844Z,40.27
2019-02-14T00:46:25.307Z,35.23
2019-02-14T00:48:57.045Z,33.30
2019-02-14T00:51:31.224Z,35.40
2019-02-14T00:54:02.767Z,38.27
2019-02-14T00:56:34.307Z,37.37
2019-02-14T00:59:05.780Z,40.07
2019-02-14T01:01:37.218Z,42.70
2019-02-14T01:04:09.023Z,36.17
2019-02-14T01:06:40.520Z,47.40
2019-02-14T01:09:12.107Z,38.70
2019-02-14T01:11:43.572Z,39.43
2019-02-14T01:14:15.100Z,44.47
2019-02-14T01:16:46.808Z,46.03
2019-02-14T01:19:37.527Z,40.03
2019-02-14T01:22:08.980Z,44.70
2019-02-14T01:24:41.060Z,42.63
2019-02-14T01:27:12.524Z,40.97
2019-02-14T01:29:44.800Z,44.50
2019-02-14T01:32:16.328Z,44.67
2019-02-14T01:34:47.828Z,37.23
2019-02-14T01:37:21.058Z,40.20
2019-02-14T01:40:11.558Z,44.30
2019-02-14T01:42:43.007Z,45.20
2019-02-14T01:45:14.502Z,45.87
2019-02-14T01:47:45.989Z,41.77
2019-02-14T01:50:17.501Z,42.00
2019-02-14T01:52:48.954Z,47.10
2019-02-14T01:55:20.509Z,48.23
2019-02-14T01:57:52.039Z,47.67
2019-02-14T02:00:23.729Z,50.97
2019-02-14T02:02:55.171Z,49.53
2019-02-14T02:05:26.648Z,42.83
2019-02-14T02:08:00.926Z,40.37
2019-02-14T02:10:32.480Z,41.30
2019-02-14T02:13:03.976Z,48.83
2019-02-14T02:15:36.552Z,50.13
2019-02-14T02:18:08.031Z,54.97
2019-02-14T02:20:39.578Z,48.43
2019-02-14T02:23:11.194Z,50.17
2019-02-14T02:25:42.660Z,50.87
2019-02-14T02:28:14.141Z,54.33
2019-02-14T02:30:45.652Z,44.00
2019-02-14T02:33:17.172Z,51.67
2019-02-14T02:35:48.719Z,46.10
2019-02-14T02:38:20.327Z,47.90
2019-02-14T02:40:51.874Z,52.47
2019-02-14T02:43:23.378Z,48.90
2019-02-14T02:45:54.878Z,45.30
2019-02-14T02:48:26.687Z,52.93
2019-02-14T02:50:58.188Z,51.97
2019-02-14T02:53:29.670Z,45.37
2019-02-14T02:56:01.178Z,46.10
2019-02-14T02:58:32.778Z,43.83
2019-02-14T03:01:04.303Z,58.43
2019-02-14T03:03:35.784Z,52.57
2019-02-14T03:06:10.693Z,46.30
2019-02-14T03:08:40.533Z,46.83
2019-02-14T03:11:11.977Z,52.73
2019-02-14T03:13:43.410Z,52.60
2019-02-14T03:16:14.878Z,51.97
2019-02-14T03:18:46.352Z,49.80
2019-02-14T03:21:17.828Z,48.67
2019-02-14T03:23:49.251Z,49.33
2019-02-14T03:26:21.103Z,55.47
2019-02-14T03:28:52.530Z,47.53
2019-02-14T03:31:24.010Z,48.03
2019-02-14T03:33:55.439Z,53.30
2019-02-14T03:36:26.936Z,48.37
2019-02-14T03:38:58.364Z,65.07
2019-02-14T03:41:29.832Z,53.60
2019-02-14T03:44:01.463Z,48.67
2019-02-14T03:46:34.676Z,61.47
2019-02-14T03:49:06.086Z,48.87
2019-02-14T03:51:37.586Z,49.40
2019-02-14T03:54:10.129Z,50.00
2019-02-14T03:56:41.710Z,53.20
2019-02-14T03:59:13.219Z,49.73
2019-02-14T04:01:46.381Z,49.30
2019-02-14T04:04:17.861Z,53.80
2019-02-14T04:06:49.365Z,47.63
2019-02-14T04:09:20.907Z,51.30
2019-02-14T04:11:52.352Z,55.77
2019-02-14T04:14:25.837Z,54.70
2019-02-14T04:16:57.309Z,49.03
2019-02-14T04:19:29.179Z,55.30
2019-02-14T04:22:00.651Z,49.23
2019-02-14T04:24:32.094Z,48.20
2019-02-14T04:27:03.553Z,52.00
2019-02-14T04:29:35.009Z,51.90
2019-02-14T04:32:06.486Z,56.27
2019-02-14T04:34:37.910Z,55.40
2019-02-14T04:37:09.368Z,50.13
2019-02-14T04:39:40.830Z,55.30
2019-02-14T04:42:12.341Z,62.40
2019-02-14T04:44:43.826Z,53.70
2019-02-14T04:47:15.709Z,60.63
2019-02-14T04:49:47.217Z,58.33
2019-02-14T04:52:18.693Z,61.60
2019-02-14T04:54:50.176Z,50.97
2019-02-14T04:57:21.756Z,57.00
2019-02-14T05:00:06.019Z,52.70
2019-02-14T05:02:37.500Z,55.60
2019-02-14T05:05:09.725Z,68.40
2019-02-14T05:07:41.206Z,48.73
2019-02-14T05:10:13.087Z,56.07
2019-02-14T05:12:44.649Z,56.73
2019-02-14T05:15:16.114Z,56.37
2019-02-14T05:17:47.769Z,50.93
2019-02-14T05:20:19.229Z,64.13
2019-02-14T05:23:10.155Z,53.77
2019-02-14T05:25:41.598Z,52.40
2019-02-14T05:28:13.087Z,58.10
2019-02-14T05:30:44.553Z,59.70
2019-02-14T05:33:15.993Z,50.43
2019-02-14T05:35:47.439Z,57.90
2019-02-14T05:38:18.999Z,51.87
2019-02-14T05:40:50.491Z,59.70
2019-02-14T05:43:22.081Z,64.37
2019-02-14T05:45:53.604Z,56.40
2019-02-14T05:48:37.010Z,56.30
2019-02-14T05:51:08.496Z,55.47
2019-02-14T05:53:39.952Z,55.40
2019-02-14T05:56:11.402Z,58.93
2019-02-14T05:58:42.871Z,57.10
2019-02-14T06:01:17.637Z,56.33
2019-02-14T06:03:50.108Z,63.80
2019-02-14T06:06:21.574Z,58.07
2019-02-14T06:08:53.065Z,61.53
2019-02-14T06:11:24.545Z,60.07
2019-02-14T06:13:55.996Z,59.13
2019-02-14T06:16:27.737Z,60.57
2019-02-14T06:18:59.295Z,56.77
2019-02-14T06:21:30.770Z,67.27
2019-02-14T06:24:02.392Z,56.27
2019-02-14T06:26:33.860Z,56.90
2019-02-14T06:29:05.458Z,62.83
2019-02-14T06:31:37.518Z,63.43
2019-02-14T06:34:11.102Z,59.67
2019-02-14T06:36:42.576Z,60.67
2019-02-14T06:39:14.080Z,57.27
2019-02-14T06:41:45.715Z,62.93
2019-02-14T06:44:17.160Z,63.40
2019-02-14T06:46:48.665Z,52.23
2019-02-14T06:49:39.224Z,57.10
2019-02-14T06:52:11.072Z,53.03
2019-02-14T06:54:42.620Z,53.30
2019-02-14T06:57:14.146Z,59.27
2019-02-14T06:59:45.634Z,59.87
2019-02-14T07:02:17.084Z,53.50
2019-02-14T07:04:48.620Z,58.40
2019-02-14T07:07:20.198Z,67.50
2019-02-14T07:09:51.684Z,71.30
2019-02-14T07:12:23.284Z,73.23
2019-02-14T07:14:54.758Z,61.80
2019-02-14T07:17:26.208Z,71.93
2019-02-14T07:19:57.698Z,60.00
2019-02-14T07:22:29.178Z,69.30
2019-02-14T07:25:03.732Z,61.13
2019-02-14T07:27:35.302Z,61.90
2019-02-14T07:30:13.416Z,64.07
2019-02-14T07:32:44.944Z,60.73
2019-02-14T07:35:16.523Z,55.20
2019-02-14T07:37:48.049Z,56.07
2019-02-14T07:40:19.594Z,60.80
2019-02-14T07:42:51.300Z,61.23
2019-02-14T07:45:26.612Z,57.87
2019-02-14T07:48:14.756Z,63.03
2019-02-14T07:50:51.267Z,58.93
2019-02-14T07:53:26.956Z,63.07
2019-02-14T07:56:19.207Z,55.57
2019-02-14T07:58:51.945Z,56.40
2019-02-14T08:01:52.001Z,68.27
2019-02-14T08:04:30.994Z,55.20
2019-02-14T08:07:09.956Z,55.47
2019-02-14T08:09:48.726Z,58.33
2019-02-14T08:12:22.212Z,60.47
2019-02-14T08:14:54.020Z,65.30
2019-02-14T08:17:26.034Z,54.03
2019-02-14T08:20:00.317Z,56.37
2019-02-14T08:22:55.731Z,58.57
2019-02-14T08:25:50.748Z,60.60
2019-02-14T08:28:23.987Z,67.40
2019-02-14T08:31:28.364Z,54.37
2019-02-14T08:34:00.196Z,55.40
2019-02-14T08:36:36.388Z,56.57
2019-02-14T08:39:10.290Z,60.07
2019-02-14T08:41:41.900Z,53.07
2019-02-14T08:44:26.342Z,53.63
2019-02-14T08:49:59.995Z,54.67
2019-02-14T08:52:55.132Z,55.97
2019-02-14T08:55:37.221Z,59.13
2019-02-14T08:58:17.658Z,51.03
2019-02-14T09:01:06.255Z,54.17
2019-02-14T09:03:37.826Z,49.30
2019-02-14T09:06:09.553Z,54.23
2019-02-14T09:08:41.135Z,50.77
2019-02-14T09:11:14.317Z,51.40
2019-02-14T09:13:46.918Z,46.33
2019-02-14T09:16:18.485Z,49.77
2019-02-14T09:18:50.177Z,52.00
2019-02-14T09:21:23.202Z,51.30
2019-02-14T09:23:59.874Z,50.43
2019-02-14T09:26:32.508Z,47.37
2019-02-14T09:29:04.553Z,57.50
2019-02-14T09:31:36.292Z,49.37
2019-02-14T09:34:08.397Z,54.40
2019-02-14T09:36:43.377Z,53.40
2019-02-14T09:39:18.407Z,54.17
2019-02-14T09:41:50.017Z,46.83
2019-02-14T09:44:22.845Z,50.90
2019-02-14T09:46:54.968Z,51.60
2019-02-14T09:49:26.704Z,48.20
2019-02-14T09:51:58.390Z,50.00
2019-02-14T09:54:31.770Z,45.50
2019-02-14T09:57:04.997Z,45.33
2019-02-14T09:59:36.674Z,52.37
2019-02-14T10:02:09.838Z,56.47
2019-02-14T10:04:41.412Z,71.73
2019-02-14T10:07:12.889Z,83.77
2019-02-14T10:09:44.506Z,51.30
2019-02-14T10:12:15.984Z,52.47
2019-02-14T10:14:47.525Z,50.70
2019-02-14T10:17:22.229Z,50.70
2019-02-14T10:19:52.423Z,49.67
2019-02-14T10:22:24.879Z,50.70
2019-02-14T10:24:58.001Z,50.63
2019-02-14T10:27:31.049Z,50.40
2019-02-14T10:30:17.171Z,52.90
2019-02-14T10:32:48.697Z,53.00
2019-02-14T10:35:21.255Z,50.43
2019-02-14T10:37:52.666Z,44.73
2019-02-14T10:40:24.632Z,51.60
2019-02-14T10:42:57.507Z,48.67
2019-02-14T10:45:29.059Z,53.33
2019-02-14T10:48:01.890Z,49.27
2019-02-14T10:50:33.477Z,49.13
2019-02-14T10:53:05.097Z,48.83
2019-02-14T10:55:38.213Z,50.80
2019-02-14T10:58:12.993Z,56.30
2019-02-14T11:00:46.010Z,49.10
2019-02-14T11:03:17.873Z,52.30
2019-02-14T11:05:49.557Z,48.30
2019-02-14T11:08:21.660Z,47.37
2019-02-14T11:11:05.349Z,70.23
2019-02-14T11:13:37.395Z,49.00
2019-02-14T11:16:09.883Z,50.70
2019-02-14T11:18:44.394Z,45.73
2019-02-14T11:21:14.610Z,42.87
2019-02-14T11:23:46.205Z,43.03
2019-02-14T11:26:17.817Z,43.33
2019-02-14T11:28:49.519Z,45.00
2019-02-14T11:31:21.125Z,45.07
2019-02-14T11:33:52.758Z,41.50
2019-02-14T11:36:24.574Z,38.13
2019-02-14T11:38:56.369Z,38.33
2019-02-14T11:41:30.671Z,47.70
2019-02-14T11:44:02.955Z,42.13
2019-02-14T11:46:34.587Z,39.33
2019-02-14T11:49:06.128Z,38.00
2019-02-14T11:51:57.450Z,43.60
2019-02-14T11:54:29.051Z,45.80
2019-02-14T11:57:00.652Z,65.33
2019-02-14T11:59:32.215Z,40.43
2019-02-14T12:02:03.855Z,32.33
2019-02-14T12:04:35.516Z,34.67
2019-02-14T12:07:07.033Z,37.73
2019-02-14T12:09:38.480Z,39.47
2019-02-14T12:12:10.057Z,43.10
2019-02-14T12:14:41.650Z,33.20
2019-02-14T12:17:13.237Z,35.17
2019-02-14T12:19:44.824Z,34.43
2019-02-14T12:22:16.305Z,28.40
2019-02-14T12:24:47.898Z,31.00
2019-02-14T12:27:19.501Z,26.33
2019-02-14T12:29:54.025Z,24.90
2019-02-14T12:32:26.732Z,26.90
2019-02-14T12:34:58.360Z,42.33
2019-02-14T12:37:29.876Z,26.23
2019-02-14T12:40:05.038Z,26.10
2019-02-14T12:42:36.702Z,28.23
2019-02-14T12:45:20.059Z,27.10
2019-02-14T12:47:44.020Z,26.90
2019-02-14T12:50:15.548Z,23.57
2019-02-14T12:52:47.061Z,29.37
2019-02-14T12:55:18.565Z,22.33
2019-02-14T12:57:50.043Z,31.83
2019-02-14T13:00:22.381Z,28.37
2019-02-14T13:02:53.887Z,23.60
2019-02-14T13:05:25.354Z,23.73
2019-02-14T13:07:58.058Z,22.33
2019-02-14T13:10:47.002Z,33.23
2019-02-14T13:13:18.585Z,21.20
2019-02-14T13:15:50.087Z,19.13
2019-02-14T13:18:21.622Z,17.40
2019-02-14T13:20:55.982Z,21.87
2019-02-14T13:23:27.534Z,21.30
2019-02-14T13:25:59.121Z,23.80
2019-02-14T13:28:33.138Z,20.23
2019-02-14T13:31:04.808Z,18.50
2019-02-14T13:33:36.326Z,21.40
2019-02-14T13:36:12.593Z,28.23
2019-02-14T13:38:44.154Z,26.37
2019-02-14T13:41:15.950Z,21.80
2019-02-14T13:43:48.980Z,18.20
2019-02-14T13:46:21.596Z,15.30
2019-02-14T13:48:53.172Z,14.87
2019-02-14T13:51:27.229Z,14.23
2019-02-14T13:53:59.119Z,14.10
2019-02-14T13:56:30.648Z,16.43
2019-02-14T13:59:02.224Z,13.03
2019-02-14T14:01:34.856Z,14.53
2019-02-14T14:04:10.078Z,13.33
2019-02-14T14:06:41.605Z,14.70
2019-02-14T14:09:13.835Z,13.57
2019-02-14T14:11:45.663Z,15.27
2019-02-14T14:14:17.311Z,13.80
2019-02-14T14:16:51.796Z,13.10
2019-02-14T14:19:23.479Z,14.33
2019-02-14T14:21:55.341Z,15.17
2019-02-14T14:24:27.117Z,15.13
2019-02-14T14:26:58.644Z,14.63
2019-02-14T14:29:30.267Z,14.63
2019-02-14T14:32:01.832Z,13.20
2019-02-14T14:34:33.477Z,15.10
2019-02-14T14:37:06.610Z,15.50
2019-02-14T14:39:38.181Z,15.43
2019-02-14T14:42:35.932Z,17.03
2019-02-14T14:45:09.890Z,18.53
2019-02-14T14:47:41.343Z,18.43
2019-02-14T14:50:14.927Z,14.47
2019-02-14T14:52:46.473Z,14.97
2019-02-14T14:55:20.617Z,18.10
2019-02-14T14:57:52.345Z,16.13
2019-02-14T15:00:26.981Z,17.37
2019-02-14T15:03:00.219Z,18.03
2019-02-14T15:05:32.148Z,15.40
2019-02-14T15:08:04.244Z,22.10
2019-02-14T15:10:36.062Z,17.40
2019-02-14T15:13:14.703Z,14.80
2019-02-14T15:15:51.027Z,16.17
2019-02-14T15:18:29.666Z,18.33
2019-02-14T15:21:06.325Z,17.60
2019-02-14T15:23:37.955Z,15.40
2019-02-14T15:26:09.497Z,15.53
2019-02-14T15:28:49.954Z,14.00
2019-02-14T15:31:40.920Z,14.03
2019-02-14T15:34:12.463Z,13.10
2019-02-14T15:37:03.747Z,20.87
2019-02-14T15:39:35.461Z,19.80
2019-02-14T15:42:07.178Z,14.87
2019-02-14T15:44:39.012Z,14.03
2019-02-14T15:47:14.247Z,17.50
2019-02-14T15:49:51.379Z,15.87
2019-02-14T15:52:27.456Z,15.00
2019-02-14T15:55:02.439Z,17.70
2019-02-14T15:57:34.179Z,18.90
2019-02-14T16:00:09.651Z,16.70
2019-02-14T16:02:39.351Z,19.67
2019-02-14T16:05:10.988Z,18.77
2019-02-14T16:07:42.672Z,15.67
2019-02-14T16:10:18.473Z,13.30
2019-02-14T16:12:51.274Z,17.77
2019-02-14T16:15:30.851Z,19.63
2019-02-14T16:18:12.967Z,16.70
2019-02-14T16:20:46.569Z,18.03
2019-02-14T16:23:22.133Z,16.93
2019-02-14T16:25:54.064Z,21.00
2019-02-14T16:28:26.053Z,19.70
2019-02-14T16:30:57.540Z,21.53
2019-02-14T16:33:29.023Z,22.13
2019-02-14T16:36:08.112Z,23.13
2019-02-14T16:38:42.095Z,20.70
2019-02-14T16:41:13.760Z,21.83
2019-02-14T16:43:45.775Z,19.43
2019-02-14T16:46:21.833Z,24.60
2019-02-14T16:48:53.533Z,19.33
2019-02-14T16:51:25.142Z,27.80
2019-02-14T16:53:56.677Z,19.70
2019-02-14T16:56:28.244Z,23.13
2019-02-14T16:58:59.770Z,24.13
2019-02-14T17:01:47.902Z,32.47
2019-02-14T17:04:23.215Z,21.30
2019-02-14T17:06:54.983Z,21.40
2019-02-14T17:09:26.501Z,24.07
2019-02-14T17:11:58.036Z,21.83
2019-02-14T17:14:29.544Z,23.30
2019-02-14T17:17:03.166Z,18.63
2019-02-14T17:19:36.244Z,19.33
2019-02-14T17:22:07.860Z,17.13
2019-02-14T17:24:39.345Z,19.83
2019-02-14T17:27:10.857Z,21.13
2019-02-14T17:29:42.539Z,20.93
2019-02-14T17:32:17.771Z,23.93
2019-02-14T17:34:51.022Z,30.27
2019-02-14T17:37:23.698Z,29.27
2019-02-14T17:39:55.370Z,18.67
2019-02-14T17:42:27.024Z,26.83
2019-02-14T17:44:58.600Z,24.87
2019-02-14T17:47:30.205Z,22.03
2019-02-14T17:50:01.923Z,21.70
2019-02-14T17:52:33.461Z,24.37
2019-02-14T17:55:05.096Z,22.13
2019-02-14T17:57:57.878Z,25.13
2019-02-14T18:00:30.520Z,20.03
2019-02-14T18:03:02.131Z,19.70
2019-02-14T18:05:35.444Z,19.53
2019-02-14T18:08:10.882Z,18.90
2019-02-14T18:10:44.327Z,19.53
2019-02-14T18:13:16.382Z,35.47
2019-02-14T18:15:51.306Z,21.87
2019-02-14T18:18:22.910Z,20.27
2019-02-14T18:20:54.680Z,20.60
2019-02-14T18:23:26.475Z,21.60
2019-02-14T18:25:58.306Z,21.23
2019-02-14T18:28:30.096Z,22.93
2019-02-14T18:31:04.673Z,20.33
2019-02-14T18:33:36.228Z,28.50
2019-02-14T18:36:07.777Z,32.80
2019-02-14T18:38:39.354Z,21.67
2019-02-14T18:41:15.408Z,26.13
2019-02-14T18:43:47.093Z,21.70
2019-02-14T18:46:19.876Z,23.40
2019-02-14T18:48:51.390Z,23.17
2019-02-14T18:51:27.078Z,20.70
2019-02-14T18:53:58.787Z,24.93
2019-02-14T18:56:30.670Z,23.57
2019-02-14T18:59:03.445Z,23.30
2019-02-14T19:01:35.442Z,20.17
2019-02-14T19:04:07.128Z,24.20
2019-02-14T19:06:38.786Z,20.80
2019-02-14T19:09:12.286Z,23.67
2019-02-14T19:11:52.139Z,20.73
2019-02-14T19:14:26.306Z,20.70
2019-02-14T19:16:57.936Z,30.10
2019-02-14T19:19:31.566Z,36.97
2019-02-14T19:22:03.625Z,28.10
2019-02-14T19:24:37.272Z,27.70
2019-02-14T19:27:09.046Z,19.63
2019-02-14T19:29:41.812Z,21.17
2019-02-14T19:32:13.611Z,29.07
2019-02-14T19:34:45.417Z,26.23
2019-02-14T19:37:17.067Z,22.53
2019-02-14T19:39:48.656Z,21.57
2019-02-14T19:42:20.365Z,23.83
2019-02-14T19:44:52.668Z,21.43
2019-02-14T19:47:24.319Z,28.13
2019-02-14T19:49:55.981Z,19.30
2019-02-14T19:52:33.262Z,19.23
2019-02-14T19:55:04.845Z,27.73
2019-02-14T19:57:36.488Z,27.17
2019-02-14T20:00:15.175Z,30.33
2019-02-14T20:02:46.910Z,28.03
2019-02-14T20:05:18.543Z,25.97
2019-02-14T20:07:50.412Z,23.50
2019-02-14T20:10:22.093Z,29.80
2019-02-14T20:12:54.061Z,30.47
2019-02-14T20:15:25.533Z,31.83
2019-02-14T20:18:02.179Z,19.77
2019-02-14T20:20:33.708Z,28.93
2019-02-14T20:23:05.717Z,25.00
2019-02-14T20:25:37.294Z,26.00
2019-02-14T20:28:11.893Z,28.27
2019-02-14T20:30:44.506Z,25.77
2019-02-14T20:33:16.255Z,28.10
2019-02-14T20:35:50.582Z,26.60
2019-02-14T20:38:22.334Z,30.13
2019-02-14T20:40:54.054Z,26.90
2019-02-14T20:43:25.882Z,30.13
2019-02-14T20:45:57.593Z,30.60
2019-02-14T20:48:29.303Z,25.83
2019-02-14T20:51:00.830Z,25.23
2019-02-14T20:53:32.601Z,30.20
2019-02-14T20:56:04.206Z,25.13
2019-02-14T20:58:36.975Z,24.83
2019-02-14T21:01:09.785Z,20.37
2019-02-14T21:03:43.515Z,36.37
2019-02-14T21:06:19.047Z,25.57
2019-02-14T21:08:53.587Z,22.53
2019-02-14T21:11:25.625Z,24.97
2019-02-14T21:13:58.679Z,25.90
2019-02-14T21:16:30.288Z,20.80
2019-02-14T21:19:01.902Z,24.20
2019-02-14T21:21:36.721Z,22.23
2019-02-14T21:24:10.493Z,23.30
2019-02-14T21:26:42.039Z,19.93
2019-02-14T21:29:13.569Z,31.37
2019-02-14T21:31:45.268Z,25.40
2019-02-14T21:34:17.201Z,28.40
2019-02-14T21:36:50.196Z,25.60
2019-02-14T21:39:23.383Z,23.50
2019-02-14T21:42:17.619Z,19.50
2019-02-14T21:44:30.147Z,28.20
2019-02-14T21:47:03.005Z,20.00
2019-02-14T21:49:36.077Z,26.13
2019-02-14T21:52:09.115Z,29.03
2019-02-14T21:54:41.725Z,28.17
2019-02-14T21:57:13.249Z,22.73
2019-02-14T21:59:48.307Z,24.07
2019-02-14T22:02:24.573Z,27.47
2019-02-14T22:04:59.048Z,24.20
2019-02-14T22:07:34.938Z,21.57
2019-02-14T22:10:05.722Z,21.20
2019-02-14T22:12:41.390Z,21.63
2019-02-14T22:15:17.236Z,22.47
2019-02-14T22:17:51.936Z,21.97
2019-02-14T22:20:25.262Z,21.27
2019-02-14T22:22:58.670Z,23.50
2019-02-14T22:25:33.952Z,23.73
2019-02-14T22:28:08.374Z,24.80
2019-02-14T22:30:44.641Z,25.30
2019-02-14T22:33:16.251Z,24.37
2019-02-14T22:35:50.421Z,21.30
2019-02-14T22:38:24.301Z,25.60
2019-02-14T22:41:00.854Z,25.37
2019-02-14T22:43:35.602Z,20.10
2019-02-14T22:46:10.044Z,28.57
2019-02-14T22:48:41.802Z,24.00
2019-02-14T22:51:13.309Z,21.07
2019-02-14T22:53:44.943Z,26.30
2019-02-14T22:56:16.515Z,24.23
2019-02-14T22:58:48.027Z,24.10
2019-02-14T23:01:19.705Z,20.43
2019-02-14T23:03:51.334Z,26.30
2019-02-14T23:06:22.940Z,21.67
2019-02-14T23:08:59.623Z,23.73
2019-02-14T23:11:36.074Z,27.13
2019-02-14T23:14:08.673Z,25.13
2019-02-14T23:17:10.660Z,21.63
2019-02-14T23:19:43.456Z,21.10
2019-02-14T23:22:16.733Z,20.90
2019-02-14T23:24:48.233Z,24.40
2019-02-14T23:27:19.653Z,23.60
2019-02-14T23:29:51.139Z,26.57
2019-02-14T23:32:23.129Z,20.93
2019-02-14T23:35:05.800Z,26.73
2019-02-14T23:37:39.037Z,21.33
2019-02-14T23:40:18.056Z,24.23
2019-02-14T23:42:49.649Z,25.70
2019-02-14T23:45:21.194Z,27.43
2019-02-14T23:47:52.723Z,26.33
2019-02-14T23:50:24.224Z,20.93
2019-02-14T23:52:55.774Z,20.40
2019-02-14T23:55:27.343Z,23.30
2019-02-14T23:57:59.037Z,22.80
